Ansley, Louisiana
Current Conditions -  °F | °C
As of 2:15 PM on Friday 21 Nov 2014 (Local Time) from KRSN Reporting Station
Overcast Overcast  
Wind Chill: 65°   Ceiling: 6500
Heat Index: 65°   Visibility: 10mi
Dew Point: 50°   Wind: 6mph
Humidity: 60%   Direction: 150°SSE
Pressure: 30.23"   Gusts: NA
Location:  32.5075°N, 92.6828°W
Report Text: KRSN 212015Z AUTO 15005KT 10SM OVC065 18/10 A3023 RMK AO2 T01810102
Loading
Personal Weather Stations






























Interactive Weather Map New forecast layout! Learn more

10-Day Weather Forecast

Advertisements
Track Severe Weather on mobile